Carbonado, Washington
Current Conditions -  °F | °C
As of 1:11 PM on Tuesday 21 Oct 2014 (Local Time) from KTCM Reporting Station
Overcast Overcast  
Wind Chill: 59°   Ceiling: 6000
Heat Index: 59°   Visibility: 10mi
Dew Point: 50°   Wind: 12mph
Humidity: 72%   Direction: 190°S
Pressure: 29.93"   Gusts: NA
Location:  47.08°N, 122.05°W
Report Text: KTCM 212011Z AUTO 19010KT 10SM FEW031 OVC060 15/10 A2993 RMK AO2
Loading
Personal Weather Stations






























Interactive Weather Map
Tropical Storm Tracking
New forecast layout! Learn more

10-Day Weather Forecast

Advertisements
Track Severe Weather on mobile